ATW weather

Appleton International Airport
Appleton, Wisconsin, United States

Public forecast

Using degrees Fahrenheit for public forecast. Weather courtesy of forecast.io.

Current aviation weather report (METAR) for Appleton International Airport

Retrieved 2019/10/17 10:45 UTC (1 hour ago):

KATW 171045Z 27005KT 10SM SCT120 03/03 A2998

Aviation forecast (TAF) for Appleton International Airport

Retrieved 2019/10/17 06:22 UTC (5 hours ago):

TAF KATW 170520Z 1706/1806 33006KT P6SM SCT040 FM171400 34007KT P6SM SCT030 FM180100 VRB03KT P6SM SKC